createdAt,value
2023-03-18T00:01:04.181Z,99558.97
2023-03-18T00:03:32.558Z,99563.88
2023-03-18T00:06:18.593Z,99555.00
2023-03-18T00:08:47.393Z,99553.66
2023-03-18T00:11:16.559Z,99562.81
2023-03-18T00:13:44.414Z,99558.53
2023-03-18T00:16:12.548Z,99552.53
2023-03-18T00:18:40.429Z,99548.09
2023-03-18T00:21:08.453Z,99546.69
2023-03-18T00:23:37.159Z,99539.34
2023-03-18T00:26:05.369Z,99540.03
2023-03-18T00:28:32.810Z,99542.31
2023-03-18T00:31:09.284Z,99535.06
2023-03-18T00:33:38.258Z,99542.53
2023-03-18T00:36:15.660Z,99542.91
2023-03-18T00:38:45.884Z,99542.66
2023-03-18T00:41:15.985Z,99534.31
2023-03-18T00:43:54.574Z,99540.25
2023-03-18T00:46:31.377Z,99541.50
2023-03-18T00:49:01.106Z,99531.31
2023-03-18T00:51:32.330Z,99536.34
2023-03-18T00:54:02.094Z,99541.03
2023-03-18T00:56:31.993Z,99542.53
2023-03-18T00:59:00.240Z,99526.69
2023-03-18T01:01:28.661Z,99519.09
2023-03-18T01:03:56.551Z,99519.53
2023-03-18T01:06:28.461Z,99525.31
2023-03-18T01:08:57.156Z,99520.03
2023-03-18T01:11:25.407Z,99523.31
2023-03-18T01:13:53.212Z,99514.19
2023-03-18T01:16:21.720Z,99515.38
2023-03-18T01:18:49.396Z,99516.69
2023-03-18T01:21:18.119Z,99517.47
2023-03-18T01:23:46.999Z,99511.50
2023-03-18T01:26:14.783Z,99512.53
2023-03-18T01:28:43.067Z,99500.88
2023-03-18T01:31:12.593Z,99500.31
2023-03-18T01:33:41.531Z,99498.94
2023-03-18T01:36:09.475Z,99487.44
2023-03-18T01:38:37.701Z,99484.88
2023-03-18T01:41:07.069Z,99483.91
2023-03-18T01:43:37.036Z,99483.97
2023-03-18T01:46:27.875Z,99485.84
2023-03-18T01:48:55.476Z,99483.63
2023-03-18T01:51:24.370Z,99475.50
2023-03-18T01:53:52.340Z,99478.66
2023-03-18T01:56:21.032Z,99479.53
2023-03-18T01:58:52.388Z,99485.38
2023-03-18T02:01:20.147Z,99485.34
2023-03-18T02:03:48.496Z,99478.34
2023-03-18T02:06:16.180Z,99481.91
2023-03-18T02:08:44.287Z,99488.72
2023-03-18T02:11:12.322Z,99480.66
2023-03-18T02:13:42.557Z,99478.59
2023-03-18T02:16:16.446Z,99486.59
2023-03-18T02:18:49.446Z,99490.34
2023-03-18T02:21:42.547Z,99479.12
2023-03-18T02:24:22.671Z,99475.50
2023-03-18T02:27:12.291Z,99473.50
2023-03-18T02:29:42.349Z,99477.31
2023-03-18T02:32:11.803Z,99480.53
2023-03-18T02:34:40.888Z,99477.78
2023-03-18T02:37:08.652Z,99474.16
2023-03-18T02:39:36.374Z,99475.06
2023-03-18T02:42:04.351Z,99474.66
2023-03-18T02:44:33.482Z,99475.59
2023-03-18T02:47:06.889Z,99479.72
2023-03-18T02:49:34.701Z,99487.25
2023-03-18T02:52:02.397Z,99484.88
2023-03-18T02:54:30.800Z,99483.91
2023-03-18T02:56:58.706Z,99477.84
2023-03-18T02:59:26.722Z,99474.38
2023-03-18T03:01:55.172Z,99480.88
2023-03-18T03:04:24.351Z,99471.81
2023-03-18T03:06:52.986Z,99475.28
2023-03-18T03:09:22.648Z,99467.78
2023-03-18T03:11:51.522Z,99466.50
2023-03-18T03:14:20.012Z,99469.44
2023-03-18T03:16:48.585Z,99469.91
2023-03-18T03:19:17.905Z,99466.91
2023-03-18T03:21:45.690Z,99472.69
2023-03-18T03:24:13.202Z,99477.44
2023-03-18T03:26:41.180Z,99479.28
2023-03-18T03:29:08.684Z,99478.03
2023-03-18T03:31:37.662Z,99484.25
2023-03-18T03:34:06.921Z,99483.13
2023-03-18T03:36:35.757Z,99480.31
2023-03-18T03:39:04.257Z,99491.06
2023-03-18T03:41:35.756Z,99495.12
2023-03-18T03:44:03.287Z,99489.47
2023-03-18T03:46:31.285Z,99496.22
2023-03-18T03:48:59.322Z,99499.50
2023-03-18T03:51:28.196Z,99497.94
2023-03-18T03:53:55.727Z,99500.09
2023-03-18T03:56:23.509Z,99500.59
2023-03-18T03:58:50.938Z,99497.41
2023-03-18T04:01:18.501Z,99502.72
2023-03-18T04:03:46.435Z,99498.47
2023-03-18T04:06:13.886Z,99499.50
2023-03-18T04:08:43.211Z,99491.37
2023-03-18T04:11:12.758Z,99494.75
2023-03-18T04:13:41.864Z,99496.72
2023-03-18T04:16:09.678Z,99498.19
2023-03-18T04:18:37.414Z,99503.78
2023-03-18T04:21:05.985Z,99496.00
2023-03-18T04:23:36.255Z,99496.69
2023-03-18T04:26:05.384Z,99492.59
2023-03-18T04:28:33.204Z,99503.69
2023-03-18T04:31:01.367Z,99495.69
2023-03-18T04:33:29.106Z,99501.34
2023-03-18T04:35:56.642Z,99495.63
2023-03-18T04:38:24.572Z,99500.56
2023-03-18T04:40:52.829Z,99505.91
2023-03-18T04:43:20.306Z,99502.88
2023-03-18T04:45:49.127Z,99508.66
2023-03-18T04:48:17.000Z,99501.56
2023-03-18T04:50:45.891Z,99511.25
2023-03-18T04:53:13.890Z,99516.34
2023-03-18T04:55:41.731Z,99508.78
2023-03-18T04:58:09.818Z,99507.03
2023-03-18T05:00:38.602Z,99512.72
2023-03-18T05:03:12.692Z,99510.78
2023-03-18T05:05:40.769Z,99516.66
2023-03-18T05:08:10.250Z,99517.53
2023-03-18T05:10:38.484Z,99518.50
2023-03-18T05:13:06.352Z,99524.38
2023-03-18T05:15:34.697Z,99529.41
2023-03-18T05:18:02.540Z,99531.81
2023-03-18T05:20:30.678Z,99525.28
2023-03-18T05:22:58.667Z,99530.22
2023-03-18T05:25:27.128Z,99530.22
2023-03-18T05:27:54.888Z,99535.19
2023-03-18T05:30:23.410Z,99533.19
2023-03-18T05:32:51.558Z,99537.03
2023-03-18T05:35:19.506Z,99537.97
2023-03-18T05:37:47.783Z,99543.84
2023-03-18T05:40:16.451Z,99540.97
2023-03-18T05:42:55.832Z,99538.06
2023-03-18T05:45:25.892Z,99547.44
2023-03-18T05:47:54.061Z,99544.19
2023-03-18T05:50:34.089Z,99543.56
2023-03-18T05:53:03.766Z,99545.50
2023-03-18T05:55:33.125Z,99551.47
2023-03-18T05:58:01.020Z,99552.16
2023-03-18T06:00:29.988Z,99552.03
2023-03-18T06:03:00.130Z,99553.09
2023-03-18T06:05:28.974Z,99552.41
2023-03-18T06:07:56.842Z,99558.06
2023-03-18T06:10:25.447Z,99562.12
2023-03-18T06:12:55.383Z,99555.66
2023-03-18T06:15:23.632Z,99554.88
2023-03-18T06:17:51.593Z,99560.91
2023-03-18T06:20:19.626Z,99567.97
2023-03-18T06:22:49.762Z,99564.22
2023-03-18T06:25:19.916Z,99566.87
2023-03-18T06:27:48.465Z,99562.50
2023-03-18T06:30:17.632Z,99560.69
2023-03-18T06:32:45.496Z,99568.75
2023-03-18T06:35:13.041Z,99576.28
2023-03-18T06:37:40.551Z,99576.75
2023-03-18T06:40:12.379Z,99575.81
2023-03-18T06:42:41.489Z,99582.37
2023-03-18T06:45:10.136Z,99580.00
2023-03-18T06:47:39.400Z,99592.66
2023-03-18T06:50:07.121Z,99590.97
2023-03-18T06:52:35.385Z,99587.69
2023-03-18T06:55:04.495Z,99590.84
2023-03-18T06:57:32.811Z,99590.44
2023-03-18T07:00:00.515Z,99592.16
2023-03-18T07:02:27.944Z,99595.69
2023-03-18T07:04:56.077Z,99586.06
2023-03-18T07:07:24.713Z,99585.72
2023-03-18T07:09:53.590Z,99593.06
2023-03-18T07:12:21.333Z,99592.19
2023-03-18T07:14:49.268Z,99592.28
2023-03-18T07:17:19.939Z,99584.91
2023-03-18T07:19:47.689Z,99590.53
2023-03-18T07:22:19.304Z,99586.59
2023-03-18T07:24:47.963Z,99589.06
2023-03-18T07:27:16.672Z,99591.25
2023-03-18T07:29:44.061Z,99583.63
2023-03-18T07:32:11.525Z,99591.31
2023-03-18T07:34:39.215Z,99594.66
2023-03-18T07:37:06.804Z,99589.81
2023-03-18T07:39:34.202Z,99598.06
2023-03-18T07:42:02.164Z,99598.28
2023-03-18T07:44:29.874Z,99604.87
2023-03-18T07:46:57.471Z,99598.84
2023-03-18T07:49:25.200Z,99613.41
2023-03-18T07:51:52.592Z,99620.03
2023-03-18T07:54:20.142Z,99609.19
2023-03-18T07:56:48.823Z,99611.75
2023-03-18T07:59:18.611Z,99616.91
2023-03-18T08:01:47.055Z,99613.72
2023-03-18T08:04:16.532Z,99616.81
2023-03-18T08:06:45.039Z,99608.78
2023-03-18T08:09:12.451Z,99616.16
2023-03-18T08:11:40.370Z,99610.94
2023-03-18T08:14:07.765Z,99613.37
2023-03-18T08:16:35.190Z,99613.09
2023-03-18T08:19:02.903Z,99605.56
2023-03-18T08:21:31.677Z,99604.94
2023-03-18T08:23:59.098Z,99614.72
2023-03-18T08:26:26.963Z,99617.28
2023-03-18T08:28:54.820Z,99612.28
2023-03-18T08:31:22.414Z,99609.56
2023-03-18T08:33:50.519Z,99608.75
2023-03-18T08:36:18.659Z,99608.91
2023-03-18T08:38:46.065Z,99605.44
2023-03-18T08:41:14.533Z,99604.41
2023-03-18T08:43:41.900Z,99594.25
2023-03-18T08:46:09.540Z,99600.13
2023-03-18T08:48:37.245Z,99602.72
2023-03-18T08:51:14.677Z,99607.63
2023-03-18T08:53:42.743Z,99608.28
2023-03-18T08:56:10.142Z,99597.28
2023-03-18T08:58:37.973Z,99597.00
2023-03-18T09:01:06.132Z,99595.31
2023-03-18T09:03:34.691Z,99598.38
2023-03-18T09:06:03.349Z,99596.66
2023-03-18T09:08:32.588Z,99602.25
2023-03-18T09:11:00.115Z,99608.41
2023-03-18T09:13:27.521Z,99599.88
2023-03-18T09:15:55.206Z,99596.06
2023-03-18T09:18:23.038Z,99586.00
2023-03-18T09:20:50.582Z,99596.13
2023-03-18T09:23:18.848Z,99591.22
2023-03-18T09:25:46.713Z,99584.91
2023-03-18T09:28:14.559Z,99577.56
2023-03-18T09:30:42.666Z,99574.78
2023-03-18T09:33:11.631Z,99576.16
2023-03-18T09:35:39.314Z,99572.81
2023-03-18T09:38:07.400Z,99574.16
2023-03-18T09:40:38.400Z,99572.94
2023-03-18T09:43:29.449Z,99576.63
2023-03-18T09:45:57.552Z,99568.41
2023-03-18T09:48:43.513Z,99570.66
2023-03-18T09:51:19.160Z,99570.47
2023-03-18T09:53:58.906Z,99572.00
2023-03-18T09:56:30.118Z,99581.84
2023-03-18T09:59:16.481Z,99572.59
2023-03-18T10:01:46.619Z,99568.19
2023-03-18T10:04:18.561Z,99574.53
2023-03-18T10:06:47.228Z,99557.63
2023-03-18T10:09:27.157Z,99560.44
2023-03-18T10:12:01.688Z,99563.03
2023-03-18T10:14:49.530Z,99559.69
2023-03-18T10:17:22.596Z,99555.94
2023-03-18T10:19:55.471Z,99556.00
2023-03-18T10:22:45.396Z,99548.63
2023-03-18T10:25:23.688Z,99554.53
2023-03-18T10:27:57.419Z,99548.06
2023-03-18T10:30:49.781Z,99543.84
2023-03-18T10:33:37.289Z,99550.81
2023-03-18T10:36:44.987Z,99556.22
2023-03-18T10:39:18.371Z,99556.16
2023-03-18T10:41:50.626Z,99543.28
2023-03-18T10:44:22.173Z,99547.47
2023-03-18T10:47:15.545Z,99537.50
2023-03-18T10:49:47.375Z,99531.31
2023-03-18T10:52:38.909Z,99535.84
2023-03-18T10:55:15.928Z,99531.78
2023-03-18T10:57:44.110Z,99525.22
2023-03-18T11:00:29.823Z,99529.13
2023-03-18T11:02:57.756Z,99519.94
2023-03-18T11:05:28.396Z,99518.22
2023-03-18T11:08:01.431Z,99509.03
2023-03-18T11:10:36.595Z,99515.13
2023-03-18T11:13:04.347Z,99517.84
2023-03-18T11:15:39.294Z,99502.56
2023-03-18T11:18:14.446Z,99510.28
2023-03-18T11:20:45.367Z,99498.69
2023-03-18T11:24:08.211Z,99493.88
2023-03-18T11:26:56.249Z,99505.81
2023-03-18T11:29:27.304Z,99480.81
2023-03-18T11:31:58.463Z,99485.75
2023-03-18T11:34:27.932Z,99489.63
2023-03-18T11:37:08.329Z,99491.13
2023-03-18T11:39:38.519Z,99478.19
2023-03-18T11:42:32.729Z,99476.75
2023-03-18T11:45:03.556Z,99461.13
2023-03-18T11:47:33.125Z,99460.22
2023-03-18T11:50:02.966Z,99472.50
2023-03-18T11:53:14.084Z,99475.03
2023-03-18T11:56:06.686Z,99487.66
2023-03-18T11:58:37.162Z,99475.34
2023-03-18T12:01:13.600Z,99464.31
2023-03-18T12:04:04.256Z,99462.84
2023-03-18T12:06:36.061Z,99465.34
2023-03-18T12:09:18.539Z,99459.94
2023-03-18T12:11:57.730Z,99453.03
2023-03-18T12:14:30.290Z,99454.09
2023-03-18T12:17:25.612Z,99456.81
2023-03-18T12:20:30.735Z,99441.25
2023-03-18T12:23:30.371Z,99450.63
2023-03-18T12:26:01.043Z,99436.78
2023-03-18T12:28:42.647Z,99433.44
2023-03-18T12:31:20.288Z,99434.94
2023-03-18T12:33:58.079Z,99432.50
2023-03-18T12:36:33.185Z,99429.84
2023-03-18T12:39:10.029Z,99429.03
2023-03-18T12:41:48.989Z,99437.63
2023-03-18T12:44:37.969Z,99430.72
2023-03-18T12:47:12.039Z,99434.97
2023-03-18T12:49:42.408Z,99439.19
2023-03-18T12:52:36.011Z,99438.41
2023-03-18T12:55:21.708Z,99431.47
2023-03-18T12:57:54.554Z,99432.31
2023-03-18T13:00:31.941Z,99440.12
2023-03-18T13:03:07.433Z,99440.16
2023-03-18T13:05:53.105Z,99428.91
2023-03-18T13:08:26.861Z,99436.53
2023-03-18T13:11:10.518Z,99428.84
2023-03-18T13:13:44.602Z,99430.69
2023-03-18T13:16:13.798Z,99428.72
2023-03-18T13:18:44.851Z,99432.44
2023-03-18T13:21:17.532Z,99422.06
2023-03-18T13:24:16.750Z,99432.44
2023-03-18T13:27:20.146Z,99431.50
2023-03-18T13:29:50.803Z,99432.41
2023-03-18T13:32:24.583Z,99423.81
2023-03-18T13:35:13.189Z,99425.50
2023-03-18T13:37:46.711Z,99417.69
2023-03-18T13:40:42.997Z,99409.94
2023-03-18T13:43:18.533Z,99408.19
2023-03-18T13:45:49.529Z,99407.34
2023-03-18T13:48:18.537Z,99415.16
2023-03-18T13:50:48.713Z,99402.06
2023-03-18T13:53:28.790Z,99397.78
2023-03-18T13:55:56.627Z,99402.12
2023-03-18T13:58:27.767Z,99414.28
2023-03-18T14:00:55.075Z,99396.91
2023-03-18T14:03:52.138Z,99397.78
2023-03-18T14:06:36.849Z,99396.91
2023-03-18T14:09:30.710Z,99393.41
2023-03-18T14:12:17.037Z,99395.97
2023-03-18T14:14:51.395Z,99382.97
2023-03-18T14:17:38.976Z,99388.22
2023-03-18T14:20:17.068Z,99374.25
2023-03-18T14:22:49.881Z,99376.87
2023-03-18T14:25:17.466Z,99382.09
2023-03-18T14:27:58.293Z,99370.81
2023-03-18T14:30:32.262Z,99362.91
2023-03-18T14:33:03.175Z,99370.75
2023-03-18T14:36:15.736Z,99356.03
2023-03-18T14:38:57.364Z,99363.81
2023-03-18T14:41:29.632Z,99363.81
2023-03-18T14:44:21.527Z,99366.44
2023-03-18T14:46:58.183Z,99363.84
2023-03-18T14:49:37.101Z,99362.09
2023-03-18T14:52:22.616Z,99359.50
2023-03-18T14:54:51.315Z,99360.37
2023-03-18T14:57:22.308Z,99353.34
2023-03-18T14:59:49.720Z,99355.97
2023-03-18T15:02:46.457Z,99359.41
2023-03-18T15:05:17.723Z,99357.69
2023-03-18T15:07:50.530Z,99362.84
2023-03-18T15:10:26.319Z,99354.16
2023-03-18T15:13:14.897Z,99362.91
2023-03-18T15:15:42.781Z,99362.91
2023-03-18T15:18:19.262Z,99349.91
2023-03-18T15:20:49.795Z,99351.63
2023-03-18T15:23:20.711Z,99356.78
2023-03-18T15:25:49.402Z,99352.38
2023-03-18T15:28:23.794Z,99348.13
2023-03-18T15:30:54.531Z,99349.75
2023-03-18T15:33:24.749Z,99350.69
2023-03-18T15:35:58.025Z,99356.81
2023-03-18T15:38:28.330Z,99348.13
2023-03-18T15:41:00.512Z,99351.66
2023-03-18T15:43:35.570Z,99355.97
2023-03-18T15:46:16.727Z,99357.78
2023-03-18T15:48:54.154Z,99361.19
2023-03-18T15:51:56.310Z,99349.03
2023-03-18T16:45:47.306Z,99384.44
2023-03-18T16:48:18.644Z,99387.91
2023-03-18T16:50:48.191Z,99388.84
2023-03-18T16:53:36.165Z,99380.91
2023-03-18T16:56:15.045Z,99382.66
2023-03-18T16:58:45.428Z,99379.16
2023-03-18T17:01:17.088Z,99391.28
2023-03-18T17:03:46.013Z,99391.31
2023-03-18T17:06:14.673Z,99391.28
2023-03-18T17:08:42.615Z,99387.72
2023-03-18T17:11:18.269Z,99393.72
2023-03-18T17:13:45.998Z,99398.03
2023-03-18T17:16:20.068Z,99399.75
2023-03-18T17:18:48.228Z,99399.75
2023-03-18T17:21:17.140Z,99407.37
2023-03-18T17:23:48.054Z,99404.84
2023-03-18T17:26:16.299Z,99402.22
2023-03-18T17:28:46.537Z,99403.03
2023-03-18T17:31:14.900Z,99409.94
2023-03-18T17:33:43.582Z,99412.56
2023-03-18T17:36:11.630Z,99411.56
2023-03-18T17:38:39.188Z,99422.81
2023-03-18T17:41:16.103Z,99415.09
2023-03-18T17:43:44.312Z,99416.75
2023-03-18T17:46:12.473Z,99417.56
2023-03-18T17:48:41.116Z,99413.13
2023-03-18T17:51:20.816Z,99414.81
2023-03-18T17:53:52.161Z,99412.31
2023-03-18T17:56:20.796Z,99418.25
2023-03-18T17:58:51.898Z,99409.56
2023-03-18T18:01:30.252Z,99413.91
2023-03-18T18:04:02.211Z,99420.81
2023-03-18T18:06:32.936Z,99419.94
2023-03-18T18:09:02.900Z,99422.37
2023-03-18T18:11:39.576Z,99416.06
2023-03-18T18:14:26.519Z,99417.84
2023-03-18T18:16:57.079Z,99419.41
2023-03-18T18:19:26.140Z,99421.28
2023-03-18T18:21:55.373Z,99422.06
2023-03-18T18:24:26.081Z,99430.44
2023-03-18T18:26:55.097Z,99431.97
2023-03-18T18:29:25.313Z,99434.41
2023-03-18T18:31:53.275Z,99426.78
2023-03-18T18:34:23.773Z,99438.13
2023-03-18T18:36:53.174Z,99439.84
2023-03-18T18:39:23.412Z,99430.34
2023-03-18T18:41:54.104Z,99435.69
2023-03-18T18:44:23.358Z,99443.88
2023-03-18T18:46:52.438Z,99437.97
2023-03-18T18:49:27.369Z,99436.28
2023-03-18T18:51:58.097Z,99440.19
2023-03-18T18:54:28.591Z,99426.50
2023-03-18T18:56:58.095Z,99426.47
2023-03-18T18:59:29.129Z,99424.78
2023-03-18T19:02:01.224Z,99432.34
2023-03-18T19:04:30.741Z,99437.37
2023-03-18T19:07:01.404Z,99437.37
2023-03-18T19:09:29.468Z,99436.34
2023-03-18T19:11:58.270Z,99438.13
2023-03-18T19:14:29.569Z,99440.66
2023-03-18T19:16:59.266Z,99443.25
2023-03-18T19:19:30.182Z,99440.84
2023-03-18T19:21:58.342Z,99437.19
2023-03-18T19:24:32.298Z,99439.63
2023-03-18T19:27:26.675Z,99443.38
2023-03-18T19:29:59.947Z,99448.31
2023-03-18T19:32:34.488Z,99453.38
2023-03-18T19:35:06.091Z,99445.66
2023-03-18T19:37:42.297Z,99457.44
2023-03-18T19:40:30.392Z,99449.78
2023-03-18T19:43:03.673Z,99448.00
2023-03-18T19:45:32.628Z,99455.03
2023-03-18T19:48:01.085Z,99462.22
2023-03-18T19:50:30.905Z,99463.09
2023-03-18T19:53:01.258Z,99463.81
2023-03-18T19:55:30.492Z,99464.88
2023-03-18T19:58:00.362Z,99456.38
2023-03-18T20:00:29.743Z,99465.72
2023-03-18T20:02:58.794Z,99472.56
2023-03-18T20:05:27.827Z,99476.44
2023-03-18T20:07:57.278Z,99467.03
2023-03-18T20:10:26.653Z,99467.34
2023-03-18T20:12:55.224Z,99463.50
2023-03-18T20:15:27.522Z,99471.66
2023-03-18T20:17:58.832Z,99469.56
2023-03-18T20:20:31.857Z,99461.41
2023-03-18T20:23:07.634Z,99459.81
2023-03-18T20:25:42.408Z,99471.28
2023-03-18T20:28:19.202Z,99469.47
2023-03-18T20:30:47.767Z,99470.50
2023-03-18T20:33:16.476Z,99470.03
2023-03-18T20:35:47.959Z,99464.84
2023-03-18T20:38:27.064Z,99471.19
2023-03-18T20:40:59.463Z,99475.50
2023-03-18T20:43:29.262Z,99471.12
2023-03-18T20:45:59.895Z,99471.38
2023-03-18T20:48:34.266Z,99472.81
2023-03-18T20:51:32.149Z,99476.59
2023-03-18T20:54:01.360Z,99468.03
2023-03-18T20:56:33.217Z,99468.78
2023-03-18T20:59:05.859Z,99471.75
2023-03-18T21:01:35.794Z,99465.97
2023-03-18T21:04:04.830Z,99474.00
2023-03-18T21:06:33.093Z,99472.44
2023-03-18T21:09:01.676Z,99470.81
2023-03-18T21:11:33.184Z,99466.41
2023-03-18T21:14:01.401Z,99467.75
2023-03-18T21:16:34.335Z,99466.81
2023-03-18T21:19:04.423Z,99469.59
2023-03-18T21:21:38.657Z,99479.84
2023-03-18T21:24:27.501Z,99480.19
2023-03-18T21:27:05.485Z,99474.69
2023-03-18T21:29:34.222Z,99469.03
2023-03-18T21:32:02.805Z,99473.59
2023-03-18T21:34:31.706Z,99479.72
2023-03-18T21:36:59.504Z,99477.34
2023-03-18T21:39:28.247Z,99470.75
2023-03-18T21:41:57.566Z,99471.62
2023-03-18T21:44:29.108Z,99462.97
2023-03-18T21:46:57.517Z,99466.03
2023-03-18T21:49:25.817Z,99470.91
2023-03-18T21:51:56.844Z,99472.75
2023-03-18T21:54:26.132Z,99471.41
2023-03-18T21:56:53.810Z,99467.56
2023-03-18T21:59:21.755Z,99473.94
2023-03-18T22:01:49.941Z,99475.34
2023-03-18T22:04:18.140Z,99479.53
2023-03-18T22:06:45.666Z,99476.88
2023-03-18T22:09:13.069Z,99474.47
2023-03-18T22:11:40.802Z,99474.47
2023-03-18T22:14:12.184Z,99473.88
2023-03-18T22:16:39.779Z,99473.03
2023-03-18T22:19:07.472Z,99470.44
2023-03-18T22:21:34.885Z,99475.63
2023-03-18T22:24:02.311Z,99471.41
2023-03-18T22:26:30.054Z,99473.44
2023-03-18T22:28:57.467Z,99484.28
2023-03-18T22:31:26.643Z,99473.72
2023-03-18T22:33:54.887Z,99482.78
2023-03-18T22:36:22.640Z,99486.91
2023-03-18T22:38:50.167Z,99479.88
2023-03-18T22:41:36.174Z,99472.50
2023-03-18T22:44:06.421Z,99484.41
2023-03-18T22:46:35.669Z,99480.53
2023-03-18T22:49:08.103Z,99476.22
2023-03-18T22:51:37.065Z,99480.13
2023-03-18T22:54:04.506Z,99478.38
2023-03-18T22:56:32.496Z,99482.37
2023-03-18T22:59:02.978Z,99481.81
2023-03-18T23:01:31.169Z,99479.88
2023-03-18T23:04:01.181Z,99479.38
2023-03-18T23:06:29.887Z,99480.09
2023-03-18T23:08:57.285Z,99479.00
2023-03-18T23:11:24.766Z,99479.59
2023-03-18T23:13:53.909Z,99487.22
2023-03-18T23:16:23.261Z,99487.78
2023-03-18T23:18:51.184Z,99484.19
2023-03-18T23:21:21.278Z,99482.47
2023-03-18T23:23:49.184Z,99488.19
2023-03-18T23:26:17.075Z,99496.75
2023-03-18T23:28:45.837Z,99499.50
2023-03-18T23:31:14.895Z,99502.56
2023-03-18T23:33:42.685Z,99498.19
2023-03-18T23:36:10.848Z,99503.84
2023-03-18T23:38:38.304Z,99502.56
2023-03-18T23:41:07.219Z,99507.75
2023-03-18T23:43:35.010Z,99505.91
2023-03-18T23:46:03.797Z,99508.53
2023-03-18T23:48:31.546Z,99502.12
2023-03-18T23:51:03.637Z,99496.47
2023-03-18T23:53:31.065Z,99498.41
2023-03-18T23:55:58.745Z,99485.91
2023-03-18T23:58:26.308Z,99486.44
